sensor_id;sensor_type;location;lat;lon;timestamp;P1;durP1;ratioP1;P2;durP2;ratioP2
19535;SDS011;9913;51.168;4.124;2023-07-29T00:00:12;3.25;;;1.70;;
19535;SDS011;9913;51.168;4.124;2023-07-29T00:02:40;2.35;;;1.90;;
19535;SDS011;9913;51.168;4.124;2023-07-29T00:05:09;3.95;;;2.10;;
19535;SDS011;9913;51.168;4.124;2023-07-29T00:07:37;2.80;;;1.70;;
19535;SDS011;9913;51.168;4.124;2023-07-29T00:10:06;3.10;;;2.05;;
19535;SDS011;9913;51.168;4.124;2023-07-29T00:12:35;2.85;;;2.15;;
19535;SDS011;9913;51.168;4.124;2023-07-29T00:15:06;2.80;;;2.00;;
19535;SDS011;9913;51.168;4.124;2023-07-29T00:17:35;3.15;;;1.90;;
19535;SDS011;9913;51.168;4.124;2023-07-29T00:20:04;3.88;;;2.10;;
19535;SDS011;9913;51.168;4.124;2023-07-29T00:22:35;3.10;;;2.08;;
19535;SDS011;9913;51.168;4.124;2023-07-29T00:25:03;4.15;;;2.47;;
19535;SDS011;9913;51.168;4.124;2023-07-29T00:27:32;2.58;;;1.85;;
19535;SDS011;9913;51.168;4.124;2023-07-29T00:30:00;3.08;;;2.20;;
19535;SDS011;9913;51.168;4.124;2023-07-29T00:32:30;3.65;;;2.00;;
19535;SDS011;9913;51.168;4.124;2023-07-29T00:34:58;4.65;;;2.35;;
19535;SDS011;9913;51.168;4.124;2023-07-29T00:37:29;4.10;;;2.15;;
19535;SDS011;9913;51.168;4.124;2023-07-29T00:39:58;3.88;;;2.22;;
19535;SDS011;9913;51.168;4.124;2023-07-29T00:42:26;3.50;;;1.95;;
19535;SDS011;9913;51.168;4.124;2023-07-29T00:44:55;3.30;;;2.08;;
19535;SDS011;9913;51.168;4.124;2023-07-29T00:47:23;2.72;;;2.00;;
19535;SDS011;9913;51.168;4.124;2023-07-29T00:49:54;3.03;;;2.00;;
19535;SDS011;9913;51.168;4.124;2023-07-29T00:52:23;3.42;;;2.25;;
19535;SDS011;9913;51.168;4.124;2023-07-29T00:54:53;2.90;;;2.00;;
19535;SDS011;9913;51.168;4.124;2023-07-29T00:57:22;3.47;;;2.22;;
19535;SDS011;9913;51.168;4.124;2023-07-29T00:59:52;3.15;;;1.90;;
19535;SDS011;9913;51.168;4.124;2023-07-29T01:02:22;3.35;;;2.03;;
19535;SDS011;9913;51.168;4.124;2023-07-29T01:04:51;2.67;;;1.75;;
19535;SDS011;9913;51.168;4.124;2023-07-29T01:07:23;4.80;;;2.20;;
19535;SDS011;9913;51.168;4.124;2023-07-29T01:10:00;3.67;;;2.20;;
19535;SDS011;9913;51.168;4.124;2023-07-29T01:12:35;2.70;;;2.20;;
19535;SDS011;9913;51.168;4.124;2023-07-29T01:15:11;3.38;;;2.10;;
19535;SDS011;9913;51.168;4.124;2023-07-29T01:17:48;3.80;;;2.10;;
19535;SDS011;9913;51.168;4.124;2023-07-29T01:20:25;3.25;;;2.03;;
19535;SDS011;9913;51.168;4.124;2023-07-29T01:22:55;3.58;;;2.13;;
19535;SDS011;9913;51.168;4.124;2023-07-29T01:25:25;2.80;;;1.90;;
19535;SDS011;9913;51.168;4.124;2023-07-29T01:27:54;3.85;;;1.90;;
19535;SDS011;9913;51.168;4.124;2023-07-29T01:30:30;2.25;;;1.65;;
19535;SDS011;9913;51.168;4.124;2023-07-29T01:33:04;3.35;;;2.20;;
19535;SDS011;9913;51.168;4.124;2023-07-29T01:35:40;4.45;;;2.17;;
19535;SDS011;9913;51.168;4.124;2023-07-29T01:38:13;3.35;;;1.90;;
19535;SDS011;9913;51.168;4.124;2023-07-29T01:40:47;3.13;;;2.03;;
19535;SDS011;9913;51.168;4.124;2023-07-29T01:43:17;5.78;;;2.30;;
19535;SDS011;9913;51.168;4.124;2023-07-29T01:45:52;4.53;;;2.05;;
19535;SDS011;9913;51.168;4.124;2023-07-29T01:48:21;4.30;;;2.05;;
19535;SDS011;9913;51.168;4.124;2023-07-29T01:50:50;4.53;;;2.00;;
19535;SDS011;9913;51.168;4.124;2023-07-29T01:53:18;3.55;;;2.20;;
19535;SDS011;9913;51.168;4.124;2023-07-29T01:55:48;6.38;;;2.47;;
19535;SDS011;9913;51.168;4.124;2023-07-29T01:58:17;3.17;;;2.38;;
19535;SDS011;9913;51.168;4.124;2023-07-29T02:00:47;5.28;;;2.78;;
19535;SDS011;9913;51.168;4.124;2023-07-29T02:03:15;4.85;;;2.53;;
19535;SDS011;9913;51.168;4.124;2023-07-29T02:05:43;3.17;;;2.40;;
19535;SDS011;9913;51.168;4.124;2023-07-29T02:08:12;3.28;;;2.38;;
19535;SDS011;9913;51.168;4.124;2023-07-29T02:10:40;3.60;;;2.60;;
19535;SDS011;9913;51.168;4.124;2023-07-29T02:13:13;3.92;;;2.60;;
19535;SDS011;9913;51.168;4.124;2023-07-29T02:15:41;4.22;;;2.47;;
19535;SDS011;9913;51.168;4.124;2023-07-29T02:18:10;2.97;;;2.42;;
19535;SDS011;9913;51.168;4.124;2023-07-29T02:20:39;4.20;;;2.80;;
19535;SDS011;9913;51.168;4.124;2023-07-29T02:23:07;3.65;;;2.67;;
19535;SDS011;9913;51.168;4.124;2023-07-29T02:25:36;3.00;;;2.35;;
19535;SDS011;9913;51.168;4.124;2023-07-29T02:28:04;4.40;;;3.00;;
19535;SDS011;9913;51.168;4.124;2023-07-29T02:30:34;6.55;;;2.80;;
19535;SDS011;9913;51.168;4.124;2023-07-29T02:33:02;5.82;;;2.85;;
19535;SDS011;9913;51.168;4.124;2023-07-29T02:35:31;3.47;;;2.33;;
19535;SDS011;9913;51.168;4.124;2023-07-29T02:37:59;3.70;;;2.42;;
19535;SDS011;9913;51.168;4.124;2023-07-29T02:40:27;4.70;;;3.10;;
19535;SDS011;9913;51.168;4.124;2023-07-29T02:42:56;4.88;;;3.20;;
19535;SDS011;9913;51.168;4.124;2023-07-29T02:45:24;4.25;;;2.67;;
19535;SDS011;9913;51.168;4.124;2023-07-29T02:47:54;4.95;;;2.90;;
19535;SDS011;9913;51.168;4.124;2023-07-29T02:50:22;3.70;;;2.65;;
19535;SDS011;9913;51.168;4.124;2023-07-29T02:52:51;5.57;;;2.33;;
19535;SDS011;9913;51.168;4.124;2023-07-29T02:55:19;5.20;;;3.35;;
19535;SDS011;9913;51.168;4.124;2023-07-29T02:57:48;4.60;;;2.67;;
19535;SDS011;9913;51.168;4.124;2023-07-29T03:00:16;3.75;;;2.85;;
19535;SDS011;9913;51.168;4.124;2023-07-29T03:02:44;4.30;;;2.53;;
19535;SDS011;9913;51.168;4.124;2023-07-29T03:05:14;4.38;;;2.55;;
19535;SDS011;9913;51.168;4.124;2023-07-29T03:07:43;5.18;;;2.92;;
19535;SDS011;9913;51.168;4.124;2023-07-29T03:10:12;4.45;;;3.20;;
19535;SDS011;9913;51.168;4.124;2023-07-29T03:12:40;4.78;;;3.45;;
19535;SDS011;9913;51.168;4.124;2023-07-29T03:15:09;4.32;;;2.65;;
19535;SDS011;9913;51.168;4.124;2023-07-29T03:17:37;4.88;;;3.25;;
19535;SDS011;9913;51.168;4.124;2023-07-29T03:20:09;4.45;;;2.60;;
19535;SDS011;9913;51.168;4.124;2023-07-29T03:22:39;7.38;;;3.17;;
19535;SDS011;9913;51.168;4.124;2023-07-29T03:25:07;6.15;;;3.22;;
19535;SDS011;9913;51.168;4.124;2023-07-29T03:27:36;4.20;;;2.67;;
19535;SDS011;9913;51.168;4.124;2023-07-29T03:30:04;4.63;;;2.83;;
19535;SDS011;9913;51.168;4.124;2023-07-29T03:32:34;4.45;;;2.97;;
19535;SDS011;9913;51.168;4.124;2023-07-29T03:35:02;4.45;;;3.22;;
19535;SDS011;9913;51.168;4.124;2023-07-29T03:37:31;5.00;;;3.28;;
19535;SDS011;9913;51.168;4.124;2023-07-29T03:40:00;5.05;;;2.53;;
19535;SDS011;9913;51.168;4.124;2023-07-29T03:42:31;3.78;;;2.92;;
19535;SDS011;9913;51.168;4.124;2023-07-29T03:44:59;3.65;;;2.60;;
19535;SDS011;9913;51.168;4.124;2023-07-29T03:47:27;4.18;;;2.70;;
19535;SDS011;9913;51.168;4.124;2023-07-29T03:49:57;3.95;;;3.03;;
19535;SDS011;9913;51.168;4.124;2023-07-29T03:52:26;4.55;;;2.80;;
19535;SDS011;9913;51.168;4.124;2023-07-29T03:54:54;3.78;;;3.03;;
19535;SDS011;9913;51.168;4.124;2023-07-29T03:57:24;3.97;;;2.90;;
19535;SDS011;9913;51.168;4.124;2023-07-29T03:59:52;3.97;;;2.67;;
19535;SDS011;9913;51.168;4.124;2023-07-29T04:02:21;5.18;;;2.92;;
19535;SDS011;9913;51.168;4.124;2023-07-29T04:04:49;6.60;;;2.70;;
19535;SDS011;9913;51.168;4.124;2023-07-29T04:07:17;4.05;;;2.80;;
19535;SDS011;9913;51.168;4.124;2023-07-29T04:09:46;5.20;;;2.80;;
19535;SDS011;9913;51.168;4.124;2023-07-29T04:12:15;5.30;;;2.85;;
19535;SDS011;9913;51.168;4.124;2023-07-29T04:14:44;4.75;;;2.63;;
19535;SDS011;9913;51.168;4.124;2023-07-29T04:17:13;4.22;;;2.58;;
19535;SDS011;9913;51.168;4.124;2023-07-29T04:19:41;3.85;;;2.53;;
19535;SDS011;9913;51.168;4.124;2023-07-29T04:22:10;3.22;;;2.20;;
19535;SDS011;9913;51.168;4.124;2023-07-29T04:24:39;6.00;;;2.58;;
19535;SDS011;9913;51.168;4.124;2023-07-29T04:27:07;4.90;;;2.63;;
19535;SDS011;9913;51.168;4.124;2023-07-29T04:29:36;2.78;;;2.25;;
19535;SDS011;9913;51.168;4.124;2023-07-29T04:32:06;3.78;;;2.33;;
19535;SDS011;9913;51.168;4.124;2023-07-29T04:34:34;3.60;;;2.72;;
19535;SDS011;9913;51.168;4.124;2023-07-29T04:37:03;4.25;;;2.92;;
19535;SDS011;9913;51.168;4.124;2023-07-29T04:39:31;3.40;;;2.28;;
19535;SDS011;9913;51.168;4.124;2023-07-29T04:42:00;3.65;;;2.55;;
19535;SDS011;9913;51.168;4.124;2023-07-29T04:44:28;4.10;;;3.08;;
19535;SDS011;9913;51.168;4.124;2023-07-29T04:46:56;4.18;;;2.50;;
19535;SDS011;9913;51.168;4.124;2023-07-29T04:49:26;4.10;;;2.70;;
19535;SDS011;9913;51.168;4.124;2023-07-29T04:51:54;4.75;;;2.67;;
19535;SDS011;9913;51.168;4.124;2023-07-29T04:54:23;3.97;;;2.47;;
19535;SDS011;9913;51.168;4.124;2023-07-29T04:56:51;4.05;;;2.88;;
19535;SDS011;9913;51.168;4.124;2023-07-29T04:59:19;3.38;;;2.17;;
19535;SDS011;9913;51.168;4.124;2023-07-29T05:01:48;5.38;;;2.05;;
19535;SDS011;9913;51.168;4.124;2023-07-29T05:04:19;4.50;;;2.55;;
19535;SDS011;9913;51.168;4.124;2023-07-29T05:06:49;8.32;;;2.88;;
19535;SDS011;9913;51.168;4.124;2023-07-29T05:09:18;4.05;;;2.53;;
19535;SDS011;9913;51.168;4.124;2023-07-29T05:11:47;4.78;;;2.60;;
19535;SDS011;9913;51.168;4.124;2023-07-29T05:14:17;4.15;;;2.35;;
19535;SDS011;9913;51.168;4.124;2023-07-29T05:16:45;4.22;;;2.30;;
19535;SDS011;9913;51.168;4.124;2023-07-29T05:19:14;4.25;;;2.45;;
19535;SDS011;9913;51.168;4.124;2023-07-29T05:21:43;3.08;;;2.33;;
19535;SDS011;9913;51.168;4.124;2023-07-29T05:24:13;3.30;;;2.70;;
19535;SDS011;9913;51.168;4.124;2023-07-29T05:26:41;3.88;;;2.25;;
19535;SDS011;9913;51.168;4.124;2023-07-29T05:29:09;3.38;;;2.15;;
19535;SDS011;9913;51.168;4.124;2023-07-29T05:31:37;5.68;;;1.90;;
19535;SDS011;9913;51.168;4.124;2023-07-29T05:34:06;3.75;;;2.10;;
19535;SDS011;9913;51.168;4.124;2023-07-29T05:36:35;3.78;;;2.10;;
19535;SDS011;9913;51.168;4.124;2023-07-29T05:39:04;3.78;;;2.08;;
19535;SDS011;9913;51.168;4.124;2023-07-29T05:41:35;3.88;;;2.10;;
19535;SDS011;9913;51.168;4.124;2023-07-29T05:44:03;3.13;;;2.10;;
19535;SDS011;9913;51.168;4.124;2023-07-29T05:46:36;3.80;;;1.90;;
19535;SDS011;9913;51.168;4.124;2023-07-29T05:49:06;3.05;;;1.83;;
19535;SDS011;9913;51.168;4.124;2023-07-29T05:51:35;2.33;;;1.90;;
19535;SDS011;9913;51.168;4.124;2023-07-29T05:54:03;3.53;;;2.20;;
19535;SDS011;9913;51.168;4.124;2023-07-29T05:56:31;3.13;;;2.03;;
19535;SDS011;9913;51.168;4.124;2023-07-29T05:59:01;3.28;;;2.28;;
19535;SDS011;9913;51.168;4.124;2023-07-29T06:01:29;2.90;;;2.10;;
19535;SDS011;9913;51.168;4.124;2023-07-29T06:03:58;3.13;;;1.90;;
19535;SDS011;9913;51.168;4.124;2023-07-29T06:06:26;4.07;;;2.10;;
19535;SDS011;9913;51.168;4.124;2023-07-29T06:08:55;2.70;;;1.80;;
19535;SDS011;9913;51.168;4.124;2023-07-29T06:11:23;3.47;;;2.55;;
19535;SDS011;9913;51.168;4.124;2023-07-29T06:13:51;3.05;;;2.13;;
19535;SDS011;9913;51.168;4.124;2023-07-29T06:16:21;2.55;;;2.00;;
19535;SDS011;9913;51.168;4.124;2023-07-29T06:18:50;2.38;;;1.80;;
19535;SDS011;9913;51.168;4.124;2023-07-29T06:21:19;3.00;;;2.03;;
19535;SDS011;9913;51.168;4.124;2023-07-29T06:23:49;4.13;;;2.05;;
19535;SDS011;9913;51.168;4.124;2023-07-29T06:26:17;1.98;;;1.70;;
19535;SDS011;9913;51.168;4.124;2023-07-29T06:28:45;2.58;;;1.77;;
19535;SDS011;9913;51.168;4.124;2023-07-29T06:31:14;4.50;;;1.85;;
19535;SDS011;9913;51.168;4.124;2023-07-29T06:33:43;2.55;;;1.50;;
19535;SDS011;9913;51.168;4.124;2023-07-29T06:36:12;4.90;;;1.65;;
19535;SDS011;9913;51.168;4.124;2023-07-29T06:38:40;2.70;;;1.52;;
19535;SDS011;9913;51.168;4.124;2023-07-29T06:41:08;2.20;;;1.65;;
19535;SDS011;9913;51.168;4.124;2023-07-29T06:43:41;2.63;;;1.42;;
19535;SDS011;9913;51.168;4.124;2023-07-29T06:46:09;1.98;;;1.52;;
19535;SDS011;9913;51.168;4.124;2023-07-29T06:48:37;2.20;;;1.70;;
19535;SDS011;9913;51.168;4.124;2023-07-29T06:51:07;2.45;;;1.70;;
19535;SDS011;9913;51.168;4.124;2023-07-29T06:53:35;3.42;;;1.88;;
19535;SDS011;9913;51.168;4.124;2023-07-29T06:56:04;3.05;;;2.15;;
19535;SDS011;9913;51.168;4.124;2023-07-29T06:58:32;2.63;;;1.42;;
19535;SDS011;9913;51.168;4.124;2023-07-29T07:01:00;2.88;;;1.70;;
19535;SDS011;9913;51.168;4.124;2023-07-29T07:03:30;3.38;;;1.77;;
19535;SDS011;9913;51.168;4.124;2023-07-29T07:05:58;2.05;;;1.55;;
19535;SDS011;9913;51.168;4.124;2023-07-29T07:08:28;2.50;;;1.58;;
19535;SDS011;9913;51.168;4.124;2023-07-29T07:10:57;2.13;;;1.38;;
19535;SDS011;9913;51.168;4.124;2023-07-29T07:13:26;2.90;;;1.52;;
19535;SDS011;9913;51.168;4.124;2023-07-29T07:15:54;2.45;;;1.60;;
19535;SDS011;9913;51.168;4.124;2023-07-29T07:18:23;2.42;;;1.60;;
19535;SDS011;9913;51.168;4.124;2023-07-29T07:20:54;1.95;;;1.40;;
19535;SDS011;9913;51.168;4.124;2023-07-29T07:23:23;2.17;;;1.60;;
19535;SDS011;9913;51.168;4.124;2023-07-29T07:25:52;3.17;;;1.77;;
19535;SDS011;9913;51.168;4.124;2023-07-29T07:28:21;2.60;;;1.70;;
19535;SDS011;9913;51.168;4.124;2023-07-29T07:30:49;2.05;;;1.50;;
19535;SDS011;9913;51.168;4.124;2023-07-29T07:33:18;3.00;;;1.80;;
19535;SDS011;9913;51.168;4.124;2023-07-29T07:35:46;3.10;;;1.65;;
19535;SDS011;9913;51.168;4.124;2023-07-29T07:38:14;3.70;;;1.67;;
19535;SDS011;9913;51.168;4.124;2023-07-29T07:40:43;1.88;;;1.48;;
19535;SDS011;9913;51.168;4.124;2023-07-29T07:43:21;2.97;;;1.45;;
19535;SDS011;9913;51.168;4.124;2023-07-29T07:45:51;2.15;;;1.10;;
19535;SDS011;9913;51.168;4.124;2023-07-29T07:48:19;3.03;;;1.50;;
19535;SDS011;9913;51.168;4.124;2023-07-29T07:50:47;3.40;;;1.73;;
19535;SDS011;9913;51.168;4.124;2023-07-29T07:53:16;2.67;;;1.20;;
19535;SDS011;9913;51.168;4.124;2023-07-29T07:55:44;3.80;;;1.60;;
19535;SDS011;9913;51.168;4.124;2023-07-29T07:58:14;3.42;;;1.25;;
19535;SDS011;9913;51.168;4.124;2023-07-29T08:00:42;2.40;;;1.25;;
19535;SDS011;9913;51.168;4.124;2023-07-29T08:03:10;2.40;;;1.30;;
19535;SDS011;9913;51.168;4.124;2023-07-29T08:05:39;3.22;;;1.42;;
19535;SDS011;9913;51.168;4.124;2023-07-29T08:08:07;4.20;;;1.85;;
19535;SDS011;9913;51.168;4.124;2023-07-29T08:10:35;2.35;;;1.38;;
19535;SDS011;9913;51.168;4.124;2023-07-29T08:13:04;2.25;;;1.58;;
19535;SDS011;9913;51.168;4.124;2023-07-29T08:15:35;1.88;;;1.30;;
19535;SDS011;9913;51.168;4.124;2023-07-29T08:18:03;2.22;;;1.33;;
19535;SDS011;9913;51.168;4.124;2023-07-29T08:20:31;2.83;;;1.35;;
19535;SDS011;9913;51.168;4.124;2023-07-29T08:23:00;2.13;;;1.50;;
19535;SDS011;9913;51.168;4.124;2023-07-29T08:25:29;2.72;;;1.48;;
19535;SDS011;9913;51.168;4.124;2023-07-29T08:27:57;2.35;;;1.40;;
19535;SDS011;9913;51.168;4.124;2023-07-29T08:30:26;4.30;;;1.45;;
19535;SDS011;9913;51.168;4.124;2023-07-29T08:32:56;2.65;;;1.33;;
19535;SDS011;9913;51.168;4.124;2023-07-29T08:35:24;2.25;;;1.48;;
19535;SDS011;9913;51.168;4.124;2023-07-29T08:37:52;3.97;;;1.50;;
19535;SDS011;9913;51.168;4.124;2023-07-29T08:40:22;2.00;;;1.23;;
19535;SDS011;9913;51.168;4.124;2023-07-29T08:42:57;2.42;;;1.77;;
19535;SDS011;9913;51.168;4.124;2023-07-29T08:45:27;3.85;;;1.98;;
19535;SDS011;9913;51.168;4.124;2023-07-29T08:47:58;3.55;;;1.67;;
19535;SDS011;9913;51.168;4.124;2023-07-29T08:50:27;2.30;;;1.40;;
19535;SDS011;9913;51.168;4.124;2023-07-29T08:52:57;1.80;;;1.50;;
19535;SDS011;9913;51.168;4.124;2023-07-29T08:55:27;2.00;;;1.52;;
19535;SDS011;9913;51.168;4.124;2023-07-29T08:57:55;2.85;;;1.60;;
19535;SDS011;9913;51.168;4.124;2023-07-29T09:00:25;3.63;;;1.55;;
19535;SDS011;9913;51.168;4.124;2023-07-29T09:02:54;2.95;;;1.90;;
19535;SDS011;9913;51.168;4.124;2023-07-29T09:05:26;3.25;;;1.77;;
19535;SDS011;9913;51.168;4.124;2023-07-29T09:07:54;3.25;;;2.05;;
19535;SDS011;9913;51.168;4.124;2023-07-29T09:10:23;2.47;;;1.67;;
19535;SDS011;9913;51.168;4.124;2023-07-29T09:12:53;2.33;;;1.60;;
19535;SDS011;9913;51.168;4.124;2023-07-29T09:15:26;1.95;;;1.52;;
19535;SDS011;9913;51.168;4.124;2023-07-29T09:17:55;3.00;;;1.65;;
19535;SDS011;9913;51.168;4.124;2023-07-29T09:20:30;3.65;;;1.73;;
19535;SDS011;9913;51.168;4.124;2023-07-29T09:23:01;2.92;;;1.95;;
19535;SDS011;9913;51.168;4.124;2023-07-29T09:25:29;3.40;;;1.77;;
19535;SDS011;9913;51.168;4.124;2023-07-29T09:27:58;3.08;;;1.70;;
19535;SDS011;9913;51.168;4.124;2023-07-29T09:30:27;3.33;;;1.80;;
19535;SDS011;9913;51.168;4.124;2023-07-29T09:33:06;2.60;;;2.00;;
19535;SDS011;9913;51.168;4.124;2023-07-29T09:35:41;3.08;;;1.80;;
19535;SDS011;9913;51.168;4.124;2023-07-29T09:38:13;3.45;;;1.90;;
19535;SDS011;9913;51.168;4.124;2023-07-29T09:40:42;2.53;;;1.92;;
19535;SDS011;9913;51.168;4.124;2023-07-29T09:43:12;3.05;;;2.25;;
19535;SDS011;9913;51.168;4.124;2023-07-29T09:45:40;3.17;;;2.00;;
19535;SDS011;9913;51.168;4.124;2023-07-29T09:48:08;2.67;;;2.03;;
19535;SDS011;9913;51.168;4.124;2023-07-29T09:50:37;4.20;;;1.80;;
19535;SDS011;9913;51.168;4.124;2023-07-29T09:53:07;2.17;;;1.95;;
19535;SDS011;9913;51.168;4.124;2023-07-29T09:55:35;2.35;;;1.90;;
19535;SDS011;9913;51.168;4.124;2023-07-29T09:58:06;2.58;;;1.83;;
19535;SDS011;9913;51.168;4.124;2023-07-29T10:00:41;3.03;;;1.70;;
19535;SDS011;9913;51.168;4.124;2023-07-29T10:03:09;3.35;;;1.63;;
19535;SDS011;9913;51.168;4.124;2023-07-29T10:05:39;2.88;;;1.80;;
19535;SDS011;9913;51.168;4.124;2023-07-29T10:08:10;2.45;;;1.77;;
19535;SDS011;9913;51.168;4.124;2023-07-29T10:10:40;2.85;;;1.80;;
19535;SDS011;9913;51.168;4.124;2023-07-29T10:13:10;3.50;;;2.38;;
19535;SDS011;9913;51.168;4.124;2023-07-29T10:15:40;3.70;;;2.22;;
19535;SDS011;9913;51.168;4.124;2023-07-29T10:18:11;2.42;;;2.00;;
19535;SDS011;9913;51.168;4.124;2023-07-29T10:20:41;3.00;;;2.10;;
19535;SDS011;9913;51.168;4.124;2023-07-29T10:23:12;2.85;;;1.80;;
19535;SDS011;9913;51.168;4.124;2023-07-29T10:25:45;2.35;;;1.90;;
19535;SDS011;9913;51.168;4.124;2023-07-29T10:28:18;6.22;;;1.90;;
19535;SDS011;9913;51.168;4.124;2023-07-29T10:30:49;2.75;;;1.80;;
19535;SDS011;9913;51.168;4.124;2023-07-29T10:33:18;2.90;;;1.90;;
19535;SDS011;9913;51.168;4.124;2023-07-29T10:35:47;2.45;;;1.75;;
19535;SDS011;9913;51.168;4.124;2023-07-29T10:38:17;3.40;;;2.45;;
19535;SDS011;9913;51.168;4.124;2023-07-29T10:40:47;2.70;;;1.75;;
19535;SDS011;9913;51.168;4.124;2023-07-29T10:43:19;3.95;;;2.13;;
19535;SDS011;9913;51.168;4.124;2023-07-29T10:45:51;2.22;;;1.75;;
19535;SDS011;9913;51.168;4.124;2023-07-29T10:48:40;3.38;;;2.33;;
19535;SDS011;9913;51.168;4.124;2023-07-29T10:51:21;4.03;;;2.47;;
19535;SDS011;9913;51.168;4.124;2023-07-29T10:53:57;6.00;;;2.95;;
19535;SDS011;9913;51.168;4.124;2023-07-29T10:56:27;10.07;;;3.13;;
19535;SDS011;9913;51.168;4.124;2023-07-29T10:59:01;12.73;;;5.05;;
19535;SDS011;9913;51.168;4.124;2023-07-29T11:01:51;18.00;;;6.68;;
19535;SDS011;9913;51.168;4.124;2023-07-29T11:04:23;5.47;;;3.42;;
19535;SDS011;9913;51.168;4.124;2023-07-29T11:09:55;6.07;;;3.80;;
19535;SDS011;9913;51.168;4.124;2023-07-29T11:12:34;5.50;;;4.30;;
19535;SDS011;9913;51.168;4.124;2023-07-29T11:15:14;5.68;;;3.85;;
19535;SDS011;9913;51.168;4.124;2023-07-29T11:17:44;7.07;;;4.22;;
19535;SDS011;9913;51.168;4.124;2023-07-29T11:20:15;8.00;;;5.15;;
19535;SDS011;9913;51.168;4.124;2023-07-29T11:22:44;8.60;;;6.43;;
19535;SDS011;9913;51.168;4.124;2023-07-29T11:25:14;7.35;;;5.80;;
19535;SDS011;9913;51.168;4.124;2023-07-29T11:27:44;10.88;;;8.73;;
19535;SDS011;9913;51.168;4.124;2023-07-29T11:30:14;11.80;;;8.23;;
19535;SDS011;9913;51.168;4.124;2023-07-29T11:32:43;5.65;;;4.57;;
19535;SDS011;9913;51.168;4.124;2023-07-29T11:35:13;4.30;;;3.53;;
19535;SDS011;9913;51.168;4.124;2023-07-29T11:37:43;4.05;;;2.72;;
19535;SDS011;9913;51.168;4.124;2023-07-29T11:40:15;3.70;;;2.80;;
19535;SDS011;9913;51.168;4.124;2023-07-29T11:42:44;1.80;;;1.70;;
19535;SDS011;9913;51.168;4.124;2023-07-29T11:45:13;2.22;;;1.63;;
19535;SDS011;9913;51.168;4.124;2023-07-29T11:47:44;1.90;;;1.67;;
19535;SDS011;9913;51.168;4.124;2023-07-29T11:50:13;2.30;;;1.80;;
19535;SDS011;9913;51.168;4.124;2023-07-29T11:52:43;2.33;;;2.13;;
19535;SDS011;9913;51.168;4.124;2023-07-29T11:55:12;2.75;;;1.50;;
19535;SDS011;9913;51.168;4.124;2023-07-29T11:57:43;2.33;;;1.50;;
19535;SDS011;9913;51.168;4.124;2023-07-29T12:00:12;2.45;;;1.73;;
19535;SDS011;9913;51.168;4.124;2023-07-29T12:02:44;2.00;;;1.70;;
19535;SDS011;9913;51.168;4.124;2023-07-29T12:05:14;2.08;;;1.58;;
19535;SDS011;9913;51.168;4.124;2023-07-29T12:07:43;2.45;;;1.60;;
19535;SDS011;9913;51.168;4.124;2023-07-29T12:10:12;2.58;;;1.48;;
19535;SDS011;9913;51.168;4.124;2023-07-29T12:12:45;3.20;;;1.58;;
19535;SDS011;9913;51.168;4.124;2023-07-29T12:15:22;2.72;;;1.70;;
19535;SDS011;9913;51.168;4.124;2023-07-29T12:17:55;2.80;;;2.10;;
19535;SDS011;9913;51.168;4.124;2023-07-29T12:20:25;4.30;;;2.33;;
19535;SDS011;9913;51.168;4.124;2023-07-29T12:22:54;3.35;;;1.95;;
19535;SDS011;9913;51.168;4.124;2023-07-29T12:25:26;2.10;;;1.80;;
19535;SDS011;9913;51.168;4.124;2023-07-29T12:27:54;3.10;;;2.10;;
19535;SDS011;9913;51.168;4.124;2023-07-29T12:30:23;3.70;;;2.20;;
19535;SDS011;9913;51.168;4.124;2023-07-29T12:32:52;2.58;;;1.50;;
19535;SDS011;9913;51.168;4.124;2023-07-29T12:35:21;3.03;;;1.77;;
19535;SDS011;9913;51.168;4.124;2023-07-29T12:37:57;1.70;;;1.60;;
19535;SDS011;9913;51.168;4.124;2023-07-29T12:40:27;3.83;;;2.28;;
19535;SDS011;9913;51.168;4.124;2023-07-29T12:42:56;3.40;;;2.33;;
19535;SDS011;9913;51.168;4.124;2023-07-29T12:45:25;3.70;;;2.15;;
19535;SDS011;9913;51.168;4.124;2023-07-29T12:47:55;2.92;;;1.80;;
19535;SDS011;9913;51.168;4.124;2023-07-29T12:50:27;3.30;;;1.90;;
19535;SDS011;9913;51.168;4.124;2023-07-29T12:52:56;2.60;;;1.90;;
19535;SDS011;9913;51.168;4.124;2023-07-29T12:55:24;3.83;;;2.40;;
19535;SDS011;9913;51.168;4.124;2023-07-29T12:57:54;2.28;;;1.80;;
19535;SDS011;9913;51.168;4.124;2023-07-29T13:00:22;2.20;;;1.60;;
19535;SDS011;9913;51.168;4.124;2023-07-29T13:02:51;2.72;;;1.88;;
19535;SDS011;9913;51.168;4.124;2023-07-29T13:05:19;3.03;;;1.80;;
19535;SDS011;9913;51.168;4.124;2023-07-29T13:07:47;2.67;;;1.80;;
19535;SDS011;9913;51.168;4.124;2023-07-29T13:10:16;4.22;;;2.15;;
19535;SDS011;9913;51.168;4.124;2023-07-29T13:12:44;1.55;;;1.40;;
19535;SDS011;9913;51.168;4.124;2023-07-29T13:15:14;2.17;;;1.58;;
19535;SDS011;9913;51.168;4.124;2023-07-29T13:17:42;2.28;;;1.30;;
19535;SDS011;9913;51.168;4.124;2023-07-29T13:20:11;3.78;;;2.33;;
19535;SDS011;9913;51.168;4.124;2023-07-29T13:22:39;3.13;;;1.63;;
19535;SDS011;9913;51.168;4.124;2023-07-29T13:25:07;3.03;;;1.80;;
19535;SDS011;9913;51.168;4.124;2023-07-29T13:27:36;3.67;;;2.25;;
19535;SDS011;9913;51.168;4.124;2023-07-29T13:30:05;2.92;;;1.90;;
19535;SDS011;9913;51.168;4.124;2023-07-29T13:32:36;5.82;;;1.83;;
19535;SDS011;9913;51.168;4.124;2023-07-29T13:35:04;2.63;;;1.75;;
19535;SDS011;9913;51.168;4.124;2023-07-29T13:37:33;2.45;;;1.75;;
19535;SDS011;9913;51.168;4.124;2023-07-29T13:40:02;1.70;;;1.50;;
19535;SDS011;9913;51.168;4.124;2023-07-29T13:42:33;2.13;;;1.60;;
19535;SDS011;9913;51.168;4.124;2023-07-29T13:45:02;1.90;;;1.70;;
19535;SDS011;9913;51.168;4.124;2023-07-29T13:47:31;2.72;;;1.85;;
19535;SDS011;9913;51.168;4.124;2023-07-29T13:50:04;2.30;;;1.52;;
19535;SDS011;9913;51.168;4.124;2023-07-29T13:52:41;2.92;;;1.88;;
19535;SDS011;9913;51.168;4.124;2023-07-29T13:55:12;2.63;;;1.75;;
19535;SDS011;9913;51.168;4.124;2023-07-29T13:57:42;2.50;;;1.77;;
19535;SDS011;9913;51.168;4.124;2023-07-29T14:00:11;2.90;;;1.65;;
19535;SDS011;9913;51.168;4.124;2023-07-29T14:02:41;2.67;;;1.60;;
19535;SDS011;9913;51.168;4.124;2023-07-29T14:05:11;3.53;;;2.00;;
19535;SDS011;9913;51.168;4.124;2023-07-29T14:07:41;2.95;;;1.95;;
19535;SDS011;9913;51.168;4.124;2023-07-29T14:10:10;5.55;;;3.17;;
19535;SDS011;9913;51.168;4.124;2023-07-29T14:12:39;3.28;;;2.63;;
19535;SDS011;9913;51.168;4.124;2023-07-29T14:15:07;3.08;;;2.30;;
19535;SDS011;9913;51.168;4.124;2023-07-29T14:17:36;2.20;;;2.00;;
19535;SDS011;9913;51.168;4.124;2023-07-29T14:20:05;3.03;;;2.63;;
19535;SDS011;9913;51.168;4.124;2023-07-29T14:22:36;2.95;;;2.25;;
19535;SDS011;9913;51.168;4.124;2023-07-29T14:25:05;3.53;;;2.65;;
19535;SDS011;9913;51.168;4.124;2023-07-29T14:27:35;5.68;;;2.08;;
19535;SDS011;9913;51.168;4.124;2023-07-29T14:30:03;3.22;;;1.88;;
19535;SDS011;9913;51.168;4.124;2023-07-29T14:32:33;2.50;;;1.70;;
19535;SDS011;9913;51.168;4.124;2023-07-29T14:35:02;1.75;;;1.50;;
19535;SDS011;9913;51.168;4.124;2023-07-29T14:37:30;1.75;;;1.35;;
19535;SDS011;9913;51.168;4.124;2023-07-29T14:40:00;2.42;;;1.35;;
19535;SDS011;9913;51.168;4.124;2023-07-29T14:42:29;3.22;;;1.63;;
19535;SDS011;9913;51.168;4.124;2023-07-29T14:45:01;2.15;;;1.20;;
19535;SDS011;9913;51.168;4.124;2023-07-29T14:47:30;1.92;;;1.30;;
19535;SDS011;9913;51.168;4.124;2023-07-29T14:50:02;1.55;;;0.98;;
19535;SDS011;9913;51.168;4.124;2023-07-29T14:52:30;2.03;;;1.17;;
19535;SDS011;9913;51.168;4.124;2023-07-29T14:54:58;1.80;;;1.27;;
19535;SDS011;9913;51.168;4.124;2023-07-29T14:57:28;1.25;;;0.93;;
19535;SDS011;9913;51.168;4.124;2023-07-29T14:59:57;1.55;;;1.15;;
19535;SDS011;9913;51.168;4.124;2023-07-29T15:02:25;1.55;;;1.10;;
19535;SDS011;9913;51.168;4.124;2023-07-29T15:04:53;2.10;;;1.20;;
19535;SDS011;9913;51.168;4.124;2023-07-29T15:07:22;1.25;;;0.90;;
19535;SDS011;9913;51.168;4.124;2023-07-29T15:09:50;1.63;;;1.30;;
19535;SDS011;9913;51.168;4.124;2023-07-29T15:12:20;1.52;;;1.20;;
19535;SDS011;9913;51.168;4.124;2023-07-29T15:14:49;1.70;;;1.25;;
19535;SDS011;9913;51.168;4.124;2023-07-29T15:17:17;1.35;;;1.10;;